createdAt,value
2022-09-09T00:00:23.208Z,98.72
2022-09-09T00:01:23.165Z,98.77
2022-09-09T00:02:23.182Z,99.38
2022-09-09T00:03:23.193Z,99.48
2022-09-09T00:04:23.097Z,99.38
2022-09-09T00:05:23.104Z,99.58
2022-09-09T00:06:23.062Z,99.17
2022-09-09T00:07:23.047Z,99.93
2022-09-09T00:08:23.019Z,99.52
2022-09-09T00:09:22.999Z,99.99
2022-09-09T00:10:23.004Z,99.73
2022-09-09T00:11:22.953Z,99.99
2022-09-09T00:12:22.932Z,99.99
2022-09-09T00:13:22.914Z,99.99
2022-09-09T00:14:22.890Z,99.99
2022-09-09T00:15:22.899Z,99.99
2022-09-09T00:16:22.915Z,99.99
2022-09-09T00:17:22.830Z,99.99
2022-09-09T00:18:22.806Z,99.99
2022-09-09T00:19:22.785Z,99.99
2022-09-09T00:20:22.790Z,99.99
2022-09-09T00:21:22.745Z,99.99
2022-09-09T00:22:22.733Z,99.99
2022-09-09T00:23:22.703Z,99.99
2022-09-09T00:24:22.684Z,99.99
2022-09-09T00:25:22.692Z,99.99
2022-09-09T00:26:22.643Z,99.99
2022-09-09T00:27:22.628Z,99.99
2022-09-09T00:28:22.603Z,99.99
2022-09-09T00:29:22.583Z,99.93
2022-09-09T00:30:22.584Z,99.99
2022-09-09T00:31:22.557Z,99.99
2022-09-09T00:32:22.516Z,99.68
2022-09-09T00:33:22.498Z,99.99
2022-09-09T00:34:22.470Z,99.83
2022-09-09T00:35:22.482Z,99.17
2022-09-09T00:36:22.432Z,99.58
2022-09-09T00:37:22.412Z,99.99
2022-09-09T00:38:22.388Z,99.99
2022-09-09T00:39:22.366Z,99.93
2022-09-09T00:40:22.372Z,99.99
2022-09-09T00:41:22.327Z,99.99
2022-09-09T00:42:22.304Z,99.99
2022-09-09T00:43:22.280Z,99.99
2022-09-09T00:44:22.259Z,99.99
2022-09-09T00:45:22.263Z,99.99
2022-09-09T00:46:22.271Z,99.99
2022-09-09T00:47:22.206Z,99.99
2022-09-09T00:48:22.177Z,99.99
2022-09-09T00:49:22.158Z,99.99
2022-09-09T00:50:22.165Z,99.99
2022-09-09T00:51:22.117Z,99.99
2022-09-09T00:52:22.097Z,99.99
2022-09-09T00:53:22.080Z,99.99
2022-09-09T00:54:22.059Z,99.99
2022-09-09T00:55:22.068Z,99.99
2022-09-09T00:56:22.016Z,99.99
2022-09-09T00:57:21.995Z,99.99
2022-09-09T00:58:21.975Z,99.99
2022-09-09T00:59:25.494Z,99.99
2022-09-09T01:00:22.962Z,99.99
2022-09-09T01:01:21.960Z,99.99
2022-09-09T01:02:21.951Z,99.99
2022-09-09T01:03:21.873Z,99.99
2022-09-09T01:04:21.858Z,99.99
2022-09-09T01:05:21.861Z,99.99
2022-09-09T01:06:21.815Z,99.99
2022-09-09T01:07:21.792Z,99.99
2022-09-09T01:08:21.773Z,99.99
2022-09-09T01:09:21.755Z,99.99
2022-09-09T01:10:21.762Z,99.99
2022-09-09T01:11:21.715Z,99.99
2022-09-09T01:12:21.699Z,99.99
2022-09-09T01:13:21.676Z,99.99
2022-09-09T01:14:21.655Z,99.99
2022-09-09T01:15:21.664Z,99.99
2022-09-09T01:16:21.661Z,99.99
2022-09-09T01:17:21.596Z,99.99
2022-09-09T01:18:21.581Z,99.99
2022-09-09T01:19:21.555Z,99.99
2022-09-09T01:20:21.568Z,99.99
2022-09-09T01:21:21.516Z,99.99
2022-09-09T01:22:21.499Z,99.99
2022-09-09T01:23:21.483Z,99.99
2022-09-09T01:24:21.460Z,99.99
2022-09-09T01:25:21.472Z,99.99
2022-09-09T01:26:21.418Z,99.99
2022-09-09T01:27:21.406Z,99.99
2022-09-09T01:28:21.382Z,99.99
2022-09-09T01:29:21.359Z,99.99
2022-09-09T01:30:21.374Z,99.99
2022-09-09T01:31:21.396Z,99.99
2022-09-09T01:32:21.298Z,99.99
2022-09-09T01:33:21.279Z,99.99
2022-09-09T01:34:21.261Z,99.99
2022-09-09T01:35:21.269Z,99.99
2022-09-09T01:36:21.217Z,99.99
2022-09-09T01:37:21.199Z,99.99
2022-09-09T01:38:21.177Z,99.99
2022-09-09T01:39:21.158Z,99.99
2022-09-09T01:40:21.195Z,99.78
2022-09-09T01:41:21.117Z,99.99
2022-09-09T01:42:21.089Z,99.99
2022-09-09T01:43:21.078Z,99.99
2022-09-09T01:44:21.060Z,99.99
2022-09-09T01:45:21.066Z,99.99
2022-09-09T01:46:21.055Z,99.99
2022-09-09T01:47:20.993Z,99.99
2022-09-09T01:48:20.972Z,99.99
2022-09-09T01:49:20.950Z,99.99
2022-09-09T01:50:20.957Z,99.99
2022-09-09T01:51:20.909Z,99.99
2022-09-09T01:52:20.885Z,99.99
2022-09-09T01:53:20.865Z,99.99
2022-09-09T01:54:20.843Z,99.99
2022-09-09T01:55:20.849Z,99.99
2022-09-09T01:56:20.803Z,99.99
2022-09-09T01:57:20.786Z,99.99
2022-09-09T01:58:20.754Z,99.99
2022-09-09T01:59:20.741Z,99.99
2022-09-09T02:00:20.748Z,99.99
2022-09-09T02:01:20.722Z,99.99
2022-09-09T02:02:20.754Z,99.99
2022-09-09T02:03:20.656Z,99.99
2022-09-09T02:04:20.635Z,99.99
2022-09-09T02:05:20.749Z,99.99
2022-09-09T02:06:20.594Z,99.99
2022-09-09T02:07:20.577Z,99.99
2022-09-09T02:08:20.552Z,99.99
2022-09-09T02:09:20.537Z,99.99
2022-09-09T02:10:20.543Z,99.99
2022-09-09T02:11:20.493Z,99.99
2022-09-09T02:12:20.477Z,99.99
2022-09-09T02:13:20.453Z,99.99
2022-09-09T02:14:20.435Z,99.99
2022-09-09T02:15:20.539Z,99.99
2022-09-09T02:16:20.418Z,99.99
2022-09-09T02:17:20.373Z,99.99
2022-09-09T02:18:20.364Z,99.99
2022-09-09T02:19:20.331Z,99.99
2022-09-09T02:20:20.468Z,99.99
2022-09-09T02:21:20.292Z,99.99
2022-09-09T02:22:20.269Z,99.99
2022-09-09T02:23:20.348Z,99.99
2022-09-09T02:24:20.232Z,99.99
2022-09-09T02:25:20.239Z,99.99
2022-09-09T02:26:20.191Z,99.99
2022-09-09T02:27:20.179Z,99.99
2022-09-09T02:28:20.152Z,99.99
2022-09-09T02:29:20.130Z,99.99
2022-09-09T02:30:20.189Z,99.99
2022-09-09T02:31:20.092Z,99.99
2022-09-09T02:32:20.074Z,99.99
2022-09-09T02:33:20.054Z,99.99
2022-09-09T02:34:20.039Z,99.99
2022-09-09T02:35:20.037Z,99.99
2022-09-09T02:36:19.991Z,99.99
2022-09-09T02:37:19.972Z,99.99
2022-09-09T02:38:19.950Z,99.99
2022-09-09T02:39:19.927Z,99.99
2022-09-09T02:40:19.934Z,99.99
2022-09-09T02:41:19.889Z,99.99
2022-09-09T02:42:19.867Z,99.99
2022-09-09T02:43:19.849Z,99.99
2022-09-09T02:44:19.826Z,99.99
2022-09-09T02:45:19.836Z,99.99
2022-09-09T02:46:19.843Z,99.99
2022-09-09T02:47:19.768Z,99.99
2022-09-09T02:48:19.746Z,99.99
2022-09-09T02:49:19.721Z,99.99
2022-09-09T02:50:19.726Z,99.99
2022-09-09T02:51:19.680Z,99.99
2022-09-09T02:52:19.663Z,99.99
2022-09-09T02:53:19.642Z,99.99
2022-09-09T02:54:19.619Z,99.99
2022-09-09T02:55:19.633Z,99.99
2022-09-09T02:56:19.582Z,99.99
2022-09-09T02:57:19.563Z,99.99
2022-09-09T02:58:19.544Z,99.99
2022-09-09T02:59:19.516Z,99.99
2022-09-09T03:00:19.554Z,99.99
2022-09-09T03:01:19.562Z,99.99
2022-09-09T03:02:19.578Z,99.99
2022-09-09T03:03:19.436Z,99.99
2022-09-09T03:04:19.416Z,99.99
2022-09-09T03:05:19.392Z,99.99
2022-09-09T03:06:19.402Z,99.99
2022-09-09T03:07:19.349Z,99.99
2022-09-09T03:08:19.327Z,99.99
2022-09-09T03:09:19.306Z,99.99
2022-09-09T03:10:19.290Z,99.99
2022-09-09T03:11:19.290Z,99.99
2022-09-09T03:12:19.244Z,99.99
2022-09-09T03:13:19.220Z,99.99
2022-09-09T03:14:19.200Z,99.99
2022-09-09T03:15:19.183Z,99.99
2022-09-09T03:16:19.199Z,99.99
2022-09-09T03:17:19.139Z,99.99
2022-09-09T03:18:19.107Z,99.99
2022-09-09T03:19:20.093Z,99.99
2022-09-09T03:20:19.070Z,99.99
2022-09-09T03:21:19.080Z,99.99
2022-09-09T03:22:19.030Z,99.99
2022-09-09T03:23:19.007Z,99.99
2022-09-09T03:24:18.990Z,99.99
2022-09-09T03:25:18.960Z,99.99
2022-09-09T03:26:18.969Z,99.99
2022-09-09T03:27:18.925Z,99.99
2022-09-09T03:28:18.903Z,99.99
2022-09-09T03:29:18.883Z,99.99
2022-09-09T03:30:18.858Z,99.99
2022-09-09T03:31:18.911Z,99.99
2022-09-09T03:32:18.825Z,99.99
2022-09-09T03:33:18.800Z,99.99
2022-09-09T03:34:18.774Z,99.99
2022-09-09T03:35:18.753Z,99.99
2022-09-09T03:36:18.757Z,99.99
2022-09-09T03:37:18.710Z,99.99
2022-09-09T03:38:18.691Z,99.99
2022-09-09T03:39:18.675Z,99.99
2022-09-09T03:40:18.715Z,99.99
2022-09-09T03:41:18.655Z,99.99
2022-09-09T03:42:18.606Z,99.99
2022-09-09T03:43:18.582Z,99.99
2022-09-09T03:44:18.560Z,99.99
2022-09-09T03:45:18.541Z,99.99
2022-09-09T03:46:18.585Z,99.99
2022-09-09T03:47:18.496Z,99.99
2022-09-09T03:48:19.483Z,99.99
2022-09-09T03:49:18.458Z,99.99
2022-09-09T03:50:18.437Z,99.99
2022-09-09T03:51:18.445Z,99.99
2022-09-09T03:52:22.929Z,99.99
2022-09-09T03:53:20.378Z,99.99
2022-09-09T03:54:18.354Z,99.99
2022-09-09T03:55:18.334Z,99.99
2022-09-09T03:56:18.340Z,99.99
2022-09-09T03:57:18.295Z,99.99
2022-09-09T03:58:18.274Z,99.99
2022-09-09T03:59:18.252Z,99.99
2022-09-09T04:00:18.229Z,99.99
2022-09-09T04:01:18.266Z,99.99
2022-09-09T04:02:18.240Z,99.99
2022-09-09T04:03:18.169Z,99.99
2022-09-09T04:04:18.148Z,99.99
2022-09-09T04:05:18.130Z,99.99
2022-09-09T04:06:18.138Z,99.99
2022-09-09T04:07:18.087Z,99.99
2022-09-09T04:08:18.064Z,99.99
2022-09-09T04:09:18.045Z,99.99
2022-09-09T04:10:18.021Z,99.99
2022-09-09T04:11:18.031Z,99.99
2022-09-09T04:12:17.979Z,99.99
2022-09-09T04:13:17.956Z,99.99
2022-09-09T04:14:17.935Z,99.99
2022-09-09T04:15:17.917Z,99.99
2022-09-09T04:16:17.976Z,99.99
2022-09-09T04:17:17.878Z,99.99
2022-09-09T04:18:20.009Z,99.99
2022-09-09T04:19:18.834Z,99.99
2022-09-09T04:20:17.814Z,99.99
2022-09-09T04:21:17.819Z,99.99
2022-09-09T04:22:17.774Z,99.99
2022-09-09T04:23:17.750Z,99.99
2022-09-09T04:24:17.727Z,99.99
2022-09-09T04:25:17.707Z,99.99
2022-09-09T04:26:17.711Z,99.99
2022-09-09T04:27:17.666Z,99.99
2022-09-09T04:28:17.642Z,99.99
2022-09-09T04:29:17.626Z,99.99
2022-09-09T04:30:17.598Z,99.99
2022-09-09T04:31:17.633Z,99.99
2022-09-09T04:32:17.554Z,99.99
2022-09-09T04:33:17.536Z,99.99
2022-09-09T04:34:17.510Z,99.99
2022-09-09T04:35:17.496Z,99.99
2022-09-09T04:36:17.504Z,99.99
2022-09-09T04:37:17.452Z,99.99
2022-09-09T04:38:17.429Z,99.99
2022-09-09T04:39:17.407Z,99.99
2022-09-09T04:40:17.424Z,99.99
2022-09-09T04:41:17.393Z,99.99
2022-09-09T04:42:17.342Z,99.99
2022-09-09T04:43:17.339Z,99.99
2022-09-09T04:44:17.296Z,99.99
2022-09-09T04:45:17.277Z,99.99
2022-09-09T04:46:17.359Z,99.99
2022-09-09T04:47:17.236Z,99.99
2022-09-09T04:48:17.213Z,99.99
2022-09-09T04:49:17.191Z,99.99
2022-09-09T04:50:17.168Z,99.99
2022-09-09T04:51:17.182Z,99.99
2022-09-09T04:52:17.169Z,99.99
2022-09-09T04:53:17.103Z,99.99
2022-09-09T04:54:17.075Z,99.99
2022-09-09T04:55:17.057Z,99.99
2022-09-09T04:56:17.068Z,99.99
2022-09-09T04:57:18.895Z,99.99
2022-09-09T04:58:17.998Z,99.99
2022-09-09T04:59:16.976Z,99.99
2022-09-09T05:00:16.967Z,99.99
2022-09-09T05:01:17.037Z,99.99
2022-09-09T05:02:16.974Z,99.99
2022-09-09T05:03:16.906Z,99.99
2022-09-09T05:04:16.871Z,99.99
2022-09-09T05:05:16.847Z,99.99
2022-09-09T05:06:16.869Z,99.99
2022-09-09T05:07:16.806Z,99.99
2022-09-09T05:08:16.785Z,98.83
2022-09-09T05:09:16.768Z,98.02
2022-09-09T05:10:16.745Z,98.12
2022-09-09T05:11:16.746Z,98.32
2022-09-09T05:12:16.702Z,98.47
2022-09-09T05:13:16.681Z,98.57
2022-09-09T05:14:16.659Z,98.88
2022-09-09T05:15:16.632Z,98.43
2022-09-09T05:16:16.690Z,97.36
2022-09-09T05:17:16.593Z,97.26
2022-09-09T05:18:16.569Z,95.45
2022-09-09T05:19:16.551Z,93.99
2022-09-09T05:20:17.561Z,91.73
2022-09-09T05:21:17.528Z,90.82
2022-09-09T05:22:16.476Z,91.87
2022-09-09T05:23:16.454Z,91.42
2022-09-09T05:24:16.435Z,90.36
2022-09-09T05:25:16.410Z,90.31
2022-09-09T05:26:17.710Z,92.18
2022-09-09T05:27:17.373Z,92.12
2022-09-09T05:28:16.347Z,91.31
2022-09-09T05:29:16.320Z,92.57
2022-09-09T05:30:16.302Z,92.77
2022-09-09T05:31:16.366Z,93.38
2022-09-09T05:32:16.257Z,93.27
2022-09-09T05:33:16.228Z,92.97
2022-09-09T05:34:16.208Z,93.32
2022-09-09T05:35:16.186Z,94.84
2022-09-09T05:36:16.187Z,95.35
2022-09-09T05:37:16.144Z,94.34
2022-09-09T05:38:16.117Z,95.09
2022-09-09T05:39:16.094Z,95.39
2022-09-09T05:40:16.144Z,95.59
2022-09-09T05:41:16.092Z,95.50
2022-09-09T05:42:16.025Z,94.64
2022-09-09T05:43:16.010Z,94.19
2022-09-09T05:44:15.984Z,94.34
2022-09-09T05:45:15.963Z,95.25
2022-09-09T05:46:16.012Z,95.79
2022-09-09T05:47:15.917Z,95.84
2022-09-09T05:48:15.895Z,96.15
2022-09-09T05:49:15.871Z,96.15
2022-09-09T05:50:15.852Z,96.86
2022-09-09T05:51:15.854Z,97.77
2022-09-09T05:52:15.806Z,97.41
2022-09-09T05:53:15.786Z,97.41
2022-09-09T05:54:15.761Z,97.81
2022-09-09T05:55:15.738Z,97.36
2022-09-09T05:56:15.741Z,97.11
2022-09-09T05:57:15.693Z,98.18
2022-09-09T05:58:15.673Z,97.97
2022-09-09T05:59:15.644Z,98.22
2022-09-09T06:00:15.632Z,97.51
2022-09-09T06:01:15.628Z,97.92
2022-09-09T06:02:15.697Z,98.32
2022-09-09T06:03:15.658Z,97.92
2022-09-09T06:04:15.532Z,97.71
2022-09-09T06:05:15.510Z,98.12
2022-09-09T06:06:15.518Z,97.81
2022-09-09T06:07:15.472Z,98.32
2022-09-09T06:08:15.444Z,98.02
2022-09-09T06:09:15.421Z,98.12
2022-09-09T06:10:15.399Z,97.47
2022-09-09T06:11:15.404Z,97.36
2022-09-09T06:12:15.351Z,97.47
2022-09-09T06:13:15.333Z,97.56
2022-09-09T06:14:15.309Z,97.47
2022-09-09T06:15:15.286Z,97.06
2022-09-09T06:16:15.365Z,97.16
2022-09-09T06:17:15.241Z,97.56
2022-09-09T06:18:15.221Z,97.67
2022-09-09T06:19:15.193Z,98.12
2022-09-09T06:20:15.177Z,97.97
2022-09-09T06:21:15.185Z,97.67
2022-09-09T06:22:15.129Z,97.97
2022-09-09T06:23:15.112Z,98.18
2022-09-09T06:24:15.078Z,97.77
2022-09-09T06:25:16.062Z,97.67
2022-09-09T06:26:15.065Z,97.42
2022-09-09T06:27:15.022Z,96.06
2022-09-09T06:28:14.998Z,95.65
2022-09-09T06:29:14.975Z,95.30
2022-09-09T06:30:14.947Z,93.88
2022-09-09T06:31:14.976Z,93.23
2022-09-09T06:32:14.938Z,93.03
2022-09-09T06:33:14.889Z,92.13
2022-09-09T06:34:14.862Z,87.43
2022-09-09T06:35:14.842Z,83.11
2022-09-09T06:36:14.824Z,79.17
2022-09-09T06:37:14.827Z,77.79
2022-09-09T06:38:14.785Z,76.34
2022-09-09T06:39:15.290Z,74.67
2022-09-09T06:40:14.816Z,73.26
2022-09-09T06:41:14.726Z,71.03
2022-09-09T06:42:14.739Z,71.46
2022-09-09T06:43:14.694Z,72.23
2022-09-09T06:44:14.673Z,74.90
2022-09-09T06:45:14.653Z,74.47
2022-09-09T06:46:14.711Z,72.50
2022-09-09T06:47:14.643Z,72.56
2022-09-09T06:48:14.597Z,73.16
2022-09-09T06:49:14.578Z,75.62
2022-09-09T06:50:14.562Z,77.94
2022-09-09T06:51:14.540Z,78.74
2022-09-09T06:52:14.551Z,78.40
2022-09-09T06:53:14.511Z,78.30
2022-09-09T06:54:14.488Z,77.72
2022-09-09T06:55:14.539Z,76.32
2022-09-09T06:56:17.884Z,77.42
2022-09-09T06:57:35.964Z,75.88
2022-09-09T06:58:16.420Z,74.90
2022-09-09T06:59:14.400Z,73.13
2022-09-09T07:00:14.456Z,72.43
2022-09-09T07:01:14.377Z,74.20
2022-09-09T07:02:14.372Z,75.78
2022-09-09T07:03:14.317Z,76.82
2022-09-09T07:04:14.301Z,74.98
2022-09-09T07:05:14.281Z,74.24
2022-09-09T07:06:14.265Z,72.86
2022-09-09T07:07:14.274Z,72.26
2022-09-09T07:08:14.227Z,69.46
2022-09-09T07:09:14.207Z,68.49
2022-09-09T07:10:14.264Z,67.16
2022-09-09T07:11:14.177Z,65.50
2022-09-09T07:12:14.181Z,66.53
2022-09-09T07:13:14.139Z,69.13
2022-09-09T07:14:14.115Z,69.73
2022-09-09T07:15:14.100Z,69.66
2022-09-09T07:16:14.146Z,72.63
2022-09-09T07:17:14.083Z,72.27
2022-09-09T07:18:14.036Z,73.60
2022-09-09T07:19:14.014Z,74.74
2022-09-09T07:20:14.003Z,76.25
2022-09-09T07:21:13.981Z,76.96
2022-09-09T07:22:13.989Z,78.06
2022-09-09T07:23:13.942Z,77.76
2022-09-09T07:24:14.022Z,76.52
2022-09-09T07:25:13.904Z,76.95
2022-09-09T07:26:13.883Z,73.97
2022-09-09T07:27:13.902Z,75.84
2022-09-09T07:28:13.848Z,75.84
2022-09-09T07:29:17.259Z,75.88
2022-09-09T07:30:21.048Z,75.98
2022-09-09T07:31:15.842Z,74.40
2022-09-09T07:32:13.807Z,74.51
2022-09-09T07:33:13.762Z,75.47
2022-09-09T07:34:13.745Z,74.74
2022-09-09T07:35:13.730Z,75.71
2022-09-09T07:36:13.707Z,73.77
2022-09-09T07:37:13.721Z,75.04
2022-09-09T07:38:13.670Z,76.85
2022-09-09T07:39:13.650Z,76.98
2022-09-09T07:40:13.820Z,76.72
2022-09-09T07:41:13.613Z,77.92
2022-09-09T07:42:13.624Z,78.27
2022-09-09T07:43:17.247Z,79.60
2022-09-09T07:44:14.558Z,77.69
2022-09-09T07:45:13.540Z,80.07
2022-09-09T07:46:13.592Z,79.91
2022-09-09T07:47:13.531Z,79.74
2022-09-09T07:48:13.488Z,80.58
2022-09-09T07:49:13.473Z,81.63
2022-09-09T07:50:13.451Z,82.88
2022-09-09T07:51:13.426Z,83.83
2022-09-09T07:52:14.907Z,84.43
2022-09-09T07:53:13.391Z,84.88
2022-09-09T07:54:13.371Z,85.58
2022-09-09T07:55:13.358Z,85.98
2022-09-09T07:56:13.333Z,86.73
2022-09-09T07:57:13.351Z,87.62
2022-09-09T07:58:13.294Z,89.03
2022-09-09T07:59:13.275Z,87.88
2022-09-09T08:00:13.254Z,87.23
2022-09-09T08:01:13.239Z,85.70
2022-09-09T08:02:13.252Z,83.28
2022-09-09T08:03:13.210Z,83.54
2022-09-09T08:04:13.179Z,83.84
2022-09-09T08:05:13.163Z,84.37
2022-09-09T08:06:13.139Z,85.68
2022-09-09T08:07:13.147Z,85.88
2022-09-09T08:08:13.104Z,84.19
2022-09-09T08:09:13.083Z,84.59
2022-09-09T08:10:13.064Z,86.29
2022-09-09T08:11:13.049Z,85.78
2022-09-09T08:12:13.061Z,85.68
2022-09-09T08:13:18.503Z,85.88
2022-09-09T08:14:14.993Z,83.61
2022-09-09T08:15:12.972Z,80.88
2022-09-09T08:16:12.992Z,80.94
2022-09-09T08:17:12.960Z,78.97
2022-09-09T08:18:12.917Z,79.81
2022-09-09T08:19:12.894Z,82.44
2022-09-09T08:20:12.876Z,82.44
2022-09-09T08:21:12.859Z,83.40
2022-09-09T08:22:12.874Z,81.56
2022-09-09T08:23:12.822Z,79.73
2022-09-09T08:24:12.806Z,79.86
2022-09-09T08:25:12.784Z,75.57
2022-09-09T08:26:12.771Z,73.36
2022-09-09T08:27:12.777Z,70.03
2022-09-09T08:28:13.727Z,69.73
2022-09-09T08:29:12.731Z,69.89
2022-09-09T08:30:13.978Z,69.99
2022-09-09T08:31:13.758Z,67.33
2022-09-09T08:32:12.681Z,66.90
2022-09-09T08:33:12.640Z,69.29
2022-09-09T08:34:12.610Z,66.11
2022-09-09T08:35:13.599Z,66.91
2022-09-09T08:36:12.580Z,66.77
2022-09-09T08:37:12.590Z,66.64
2022-09-09T08:38:12.541Z,66.60
2022-09-09T08:39:12.525Z,67.20
2022-09-09T08:40:12.569Z,66.08
2022-09-09T08:41:12.487Z,68.43
2022-09-09T08:42:12.501Z,66.53
2022-09-09T08:43:12.458Z,66.80
2022-09-09T08:44:12.435Z,69.16
2022-09-09T08:45:12.419Z,70.92
2022-09-09T08:46:12.452Z,70.76
2022-09-09T08:47:12.413Z,74.87
2022-09-09T08:48:12.367Z,73.36
2022-09-09T08:49:12.347Z,73.80
2022-09-09T08:50:12.361Z,75.24
2022-09-09T08:51:12.315Z,76.89
2022-09-09T08:52:12.320Z,77.22
2022-09-09T08:53:12.275Z,80.17
2022-09-09T08:54:12.260Z,80.07
2022-09-09T08:55:12.238Z,80.07
2022-09-09T08:56:12.221Z,79.16
2022-09-09T08:57:12.230Z,74.10
2022-09-09T08:58:12.180Z,74.40
2022-09-09T08:59:12.162Z,74.97
2022-09-09T09:00:12.145Z,77.51
2022-09-09T09:01:12.228Z,77.85
2022-09-09T09:02:16.025Z,78.59
2022-09-09T09:03:13.092Z,77.25
2022-09-09T09:04:12.108Z,77.69
2022-09-09T09:05:12.054Z,79.03
2022-09-09T09:06:12.038Z,79.13
2022-09-09T09:07:12.043Z,79.87
2022-09-09T09:08:11.999Z,80.27
2022-09-09T09:09:11.979Z,80.10
2022-09-09T09:10:30.695Z,78.19
2022-09-09T09:11:13.947Z,77.69
2022-09-09T09:12:11.955Z,77.22
2022-09-09T09:13:11.904Z,77.05
2022-09-09T09:14:11.890Z,78.19
2022-09-09T09:15:11.877Z,76.65
2022-09-09T09:16:11.885Z,76.04
2022-09-09T09:17:11.858Z,73.39
2022-09-09T09:18:11.813Z,72.39
2022-09-09T09:19:11.794Z,72.19
2022-09-09T09:20:11.772Z,69.36
2022-09-09T09:21:11.756Z,69.02
2022-09-09T09:22:11.759Z,69.89
2022-09-09T09:23:11.715Z,69.66
2022-09-09T09:24:11.695Z,68.86
2022-09-09T09:25:11.682Z,69.06
2022-09-09T09:26:11.660Z,69.79
2022-09-09T09:27:11.679Z,70.03
2022-09-09T09:28:11.621Z,71.73
2022-09-09T09:29:11.599Z,72.74
2022-09-09T09:30:25.157Z,73.24
2022-09-09T09:31:13.598Z,73.67
2022-09-09T09:32:11.573Z,72.43
2022-09-09T09:33:11.532Z,71.76
2022-09-09T09:34:11.519Z,69.26
2022-09-09T09:35:11.496Z,71.39
2022-09-09T09:36:11.472Z,70.16
2022-09-09T09:37:11.481Z,69.49
2022-09-09T09:40:13.467Z,72.60
2022-09-09T09:41:11.377Z,72.64
2022-09-09T09:42:11.384Z,73.54
2022-09-09T09:43:11.336Z,72.64
2022-09-09T09:44:11.316Z,73.07
2022-09-09T09:45:11.295Z,72.60
2022-09-09T09:46:18.516Z,72.86
2022-09-09T09:47:13.291Z,71.00
2022-09-09T09:48:13.810Z,68.96
2022-09-09T09:49:12.223Z,67.93
2022-09-09T09:50:11.939Z,68.59
2022-09-09T09:51:11.181Z,67.02
2022-09-09T09:52:11.187Z,66.22
2022-09-09T09:53:11.143Z,65.29
2022-09-09T09:54:11.125Z,64.73
2022-09-09T09:55:11.107Z,65.03
2022-09-09T09:56:11.087Z,65.00
2022-09-09T09:57:11.095Z,64.73
2022-09-09T09:58:13.008Z,64.40
2022-09-09T09:59:17.991Z,64.77
2022-09-09T10:00:13.075Z,64.57
2022-09-09T10:01:11.014Z,62.77
2022-09-09T10:02:11.002Z,65.07
2022-09-09T10:03:10.952Z,64.93
2022-09-09T10:04:10.933Z,65.00
2022-09-09T10:05:10.911Z,62.50
2022-09-09T10:06:10.899Z,62.40
2022-09-09T10:07:10.963Z,63.83
2022-09-09T10:08:10.854Z,62.63
2022-09-09T10:09:10.836Z,62.13
2022-09-09T10:10:10.814Z,61.90
2022-09-09T10:11:10.800Z,65.70
2022-09-09T10:12:10.804Z,65.63
2022-09-09T10:13:10.786Z,65.03
2022-09-09T10:14:10.739Z,64.39
2022-09-09T10:15:10.724Z,65.99
2022-09-09T10:16:10.766Z,65.75
2022-09-09T10:17:10.715Z,66.99
2022-09-09T10:18:10.667Z,67.29
2022-09-09T10:19:10.645Z,67.69
2022-09-09T10:20:10.746Z,67.32
2022-09-09T10:21:10.612Z,67.32
2022-09-09T10:22:10.618Z,67.45
2022-09-09T10:23:10.572Z,67.08
2022-09-09T10:24:10.591Z,67.42
2022-09-09T10:25:10.534Z,69.46
2022-09-09T10:26:10.522Z,70.09
2022-09-09T10:27:10.523Z,71.73
2022-09-09T10:28:10.481Z,72.67
2022-09-09T10:29:10.458Z,73.00
2022-09-09T10:30:10.471Z,74.21
2022-09-09T10:31:10.479Z,75.46
2022-09-09T10:32:10.423Z,75.56
2022-09-09T10:34:11.358Z,75.82
2022-09-09T10:35:10.345Z,75.02
2022-09-09T10:36:10.328Z,74.01
2022-09-09T10:37:10.334Z,73.00
2022-09-09T10:38:10.290Z,73.11
2022-09-09T10:39:10.266Z,72.77
2022-09-09T10:40:10.408Z,72.57
2022-09-09T10:41:10.220Z,71.36
2022-09-09T10:42:11.235Z,69.76
2022-09-09T10:43:10.191Z,67.51
2022-09-09T10:44:10.169Z,67.28
2022-09-09T10:45:10.152Z,67.14
2022-09-09T10:46:10.214Z,67.11
2022-09-09T10:47:10.139Z,67.08
2022-09-09T10:48:10.094Z,67.22
2022-09-09T10:49:10.080Z,65.09
2022-09-09T10:50:10.101Z,66.89
2022-09-09T10:51:10.035Z,66.75
2022-09-09T10:52:10.045Z,65.42
2022-09-09T10:53:09.996Z,63.69
2022-09-09T10:54:09.979Z,65.79
2022-09-09T10:55:09.963Z,64.76
2022-09-09T10:56:09.935Z,65.06
2022-09-09T10:57:09.946Z,64.96
2022-09-09T10:58:09.900Z,66.86
2022-09-09T10:59:09.877Z,65.19
2022-09-09T11:00:09.879Z,67.02
2022-09-09T11:01:09.864Z,65.75
2022-09-09T11:02:09.854Z,65.92
2022-09-09T11:03:09.802Z,65.99
2022-09-09T11:04:09.820Z,62.66
2022-09-09T11:05:09.767Z,63.17
2022-09-09T11:06:09.781Z,65.86
2022-09-09T11:07:12.123Z,63.63
2022-09-09T11:08:10.757Z,61.24
2022-09-09T11:09:09.691Z,63.46
2022-09-09T11:10:09.670Z,63.73
2022-09-09T11:11:09.651Z,61.04
2022-09-09T11:12:09.656Z,59.86
2022-09-09T11:13:09.612Z,61.36
2022-09-09T11:14:09.593Z,61.87
2022-09-09T11:15:09.926Z,62.04
2022-09-09T11:16:09.550Z,60.14
2022-09-09T11:17:09.559Z,61.13
2022-09-09T11:18:09.514Z,61.24
2022-09-09T11:19:09.493Z,62.26
2022-09-09T11:20:09.468Z,61.57
2022-09-09T11:21:09.456Z,62.66
2022-09-09T11:22:09.463Z,62.46
2022-09-09T11:23:09.436Z,62.56
2022-09-09T11:24:09.396Z,62.59
2022-09-09T11:25:09.389Z,63.36
2022-09-09T11:26:09.358Z,62.76
2022-09-09T11:27:09.388Z,62.01
2022-09-09T11:28:09.326Z,61.80
2022-09-09T11:29:09.319Z,62.93
2022-09-09T11:30:09.284Z,63.43
2022-09-09T11:31:09.311Z,61.36
2022-09-09T11:32:09.271Z,62.66
2022-09-09T11:33:09.225Z,63.06
2022-09-09T11:34:09.206Z,64.32
2022-09-09T11:35:09.192Z,66.46
2022-09-09T11:36:09.169Z,67.05
2022-09-09T11:37:09.175Z,65.28
2022-09-09T11:38:09.131Z,67.12
2022-09-09T11:39:09.117Z,67.76
2022-09-09T11:40:09.128Z,67.05
2022-09-09T11:41:09.073Z,67.88
2022-09-09T11:42:09.483Z,67.29
2022-09-09T11:43:09.035Z,65.21
2022-09-09T11:44:09.022Z,65.11
2022-09-09T11:45:09.014Z,62.40
2022-09-09T11:46:09.041Z,62.30
2022-09-09T11:47:08.985Z,62.10
2022-09-09T11:48:08.940Z,63.57
2022-09-09T11:49:08.922Z,62.27
2022-09-09T11:50:08.912Z,60.36
2022-09-09T11:51:12.072Z,59.83
2022-09-09T11:52:09.897Z,59.50
2022-09-09T11:53:08.858Z,58.61
2022-09-09T11:54:08.828Z,59.58
2022-09-09T11:55:08.808Z,60.28
2022-09-09T11:56:08.791Z,59.61
2022-09-09T11:57:08.796Z,60.21
2022-09-09T11:58:08.749Z,60.21
2022-09-09T11:59:08.731Z,61.44
2022-09-09T12:00:08.717Z,61.14
2022-09-09T12:01:08.697Z,62.34
2022-09-09T12:02:08.754Z,62.97
2022-09-09T12:03:08.657Z,62.74
2022-09-09T12:04:08.671Z,64.28
2022-09-09T12:05:08.691Z,65.11
2022-09-09T12:06:08.599Z,64.31
2022-09-09T12:07:08.609Z,66.95
2022-09-09T12:08:08.565Z,66.67
2022-09-09T12:09:08.545Z,67.31
2022-09-09T12:10:08.529Z,67.61
2022-09-09T12:11:08.506Z,67.71
2022-09-09T12:12:08.523Z,67.71
2022-09-09T12:13:08.475Z,68.75
2022-09-09T12:14:08.458Z,68.65
2022-09-09T12:15:08.442Z,68.65
2022-09-09T12:16:08.421Z,69.29
2022-09-09T12:17:08.427Z,69.62
2022-09-09T12:18:08.379Z,69.59
2022-09-09T12:19:08.365Z,69.99
2022-09-09T12:20:08.344Z,70.53
2022-09-09T12:21:08.322Z,70.73
2022-09-09T12:22:08.332Z,70.56
2022-09-09T12:23:08.280Z,72.27
2022-09-09T12:24:08.258Z,73.38
2022-09-09T12:25:08.247Z,73.01
2022-09-09T12:26:08.225Z,73.18
2022-09-09T12:27:08.235Z,71.16
2022-09-09T12:28:08.190Z,71.97
2022-09-09T12:29:08.165Z,71.87
2022-09-09T12:30:08.146Z,72.17
2022-09-09T12:31:08.203Z,72.00
2022-09-09T12:32:08.134Z,72.07
2022-09-09T12:33:08.090Z,71.77
2022-09-09T12:34:08.071Z,71.26
2022-09-09T12:35:08.048Z,72.11
2022-09-09T12:36:08.028Z,71.36
2022-09-09T12:37:08.040Z,71.67
2022-09-09T12:38:07.990Z,71.06
2022-09-09T12:39:07.972Z,70.66
2022-09-09T12:40:08.047Z,70.26
2022-09-09T12:41:07.959Z,72.00
2022-09-09T12:42:07.944Z,71.77
2022-09-09T12:43:07.898Z,70.73
2022-09-09T12:44:07.896Z,69.45
2022-09-09T12:45:07.855Z,69.96
2022-09-09T12:46:07.946Z,70.23
2022-09-09T12:47:07.847Z,70.09
2022-09-09T12:48:07.813Z,70.19
2022-09-09T12:49:07.791Z,69.22
2022-09-09T12:50:07.759Z,67.21
2022-09-09T12:51:07.739Z,67.31
2022-09-09T12:52:07.755Z,66.91
2022-09-09T12:53:07.703Z,67.61
2022-09-09T12:54:07.684Z,67.11
2022-09-09T12:55:07.665Z,66.71